Juina Airport


Codes: SWJN/JIA
Name: Juina Airport
City: Juina
Country: Brazil
Elevation: 1083 ft.

Photos at Juina Airport


   Photos courtesy of SpottingLog. You can add your own sightings and photos by signing up for a free trial today.



No photos found.

Weather at Juina Airport


Time (UTC)DescriptionTempratureWindCloud coverageVisibilityPressureHumidity
26-Jun-2024 00:00Clear Sky24°C2 mph, N9%10000m1013hPa49%
26-Jun-2024 03:00Clear Sky24°C2 mph, E6%10000m1013hPa51%
26-Jun-2024 06:00Clear Sky22°C2 mph, E3%10000m1013hPa55%
26-Jun-2024 09:00Clear Sky19°C2 mph, S0%10000m1014hPa66%
26-Jun-2024 12:00Clear Sky24°C2 mph, SE0%10000m1016hPa54%
26-Jun-2024 15:00Clear Sky33°C4 mph, SE0%10000m1015hPa30%
26-Jun-2024 18:00Clear Sky36°C0 mph, SE0%10000m1011hPa24%
26-Jun-2024 21:00Clear Sky30°C2 mph, NE1%10000m1010hPa38%
27-Jun-2024 00:00Clear Sky25°C4 mph, E0%10000m1012hPa43%
27-Jun-2024 03:00Clear Sky22°C2 mph, SE0%10000m1013hPa52%
27-Jun-2024 06:00Clear Sky21°C2 mph, SE0%10000m1011hPa55%
27-Jun-2024 09:00Clear Sky20°C2 mph, E0%10000m1012hPa58%
27-Jun-2024 12:00Clear Sky24°C2 mph, SE0%10000m1014hPa50%
27-Jun-2024 15:00Clear Sky33°C4 mph, E1%10000m1013hPa29%
27-Jun-2024 18:00Clear Sky36°C4 mph, NE1%10000m1008hPa21%
27-Jun-2024 21:00Clear Sky31°C0 mph, NW1%10000m1007hPa34%
28-Jun-2024 00:00Scattered Clouds27°C2 mph, W29%10000m1009hPa37%
28-Jun-2024 03:00Overcast Clouds26°C0 mph, NW100%10000m1010hPa42%
28-Jun-2024 06:00Broken Clouds22°C0 mph, S60%10000m1009hPa53%
28-Jun-2024 09:00Clear Sky20°C2 mph, SW0%10000m1010hPa58%
28-Jun-2024 12:00Clear Sky24°C2 mph, SW3%10000m1013hPa49%
28-Jun-2024 15:00Broken Clouds32°C4 mph, NE60%10000m1012hPa31%
28-Jun-2024 18:00Scattered Clouds36°C4 mph, NE37%10000m1008hPa23%
28-Jun-2024 21:00Scattered Clouds32°C4 mph, NW28%10000m1008hPa32%
29-Jun-2024 00:00Few Clouds25°C2 mph, NW20%10000m1010hPa41%
29-Jun-2024 03:00Clear Sky23°C0 mph, NW3%10000m1011hPa46%
29-Jun-2024 06:00Clear Sky21°C0 mph, NE1%10000m1012hPa53%
29-Jun-2024 09:00Clear Sky21°C2 mph, W0%10000m1012hPa55%
29-Jun-2024 12:00Clear Sky26°C0 mph, N0%10000m1015hPa47%
29-Jun-2024 15:00Clear Sky35°C2 mph, N0%10000m1014hPa30%
29-Jun-2024 18:00Few Clouds35°C2 mph, NE15%10000m1010hPa27%
29-Jun-2024 21:00Broken Clouds31°C2 mph, NE61%10000m1010hPa41%
30-Jun-2024 00:00Scattered Clouds26°C2 mph, N38%10000m1012hPa48%
30-Jun-2024 03:00Scattered Clouds24°C2 mph, SW34%10000m1013hPa55%
30-Jun-2024 06:00Scattered Clouds22°C4 mph, S34%10000m1012hPa56%
30-Jun-2024 09:00Broken Clouds22°C7 mph, S73%10000m1013hPa56%
30-Jun-2024 12:00Broken Clouds23°C9 mph, SE70%10000m1015hPa55%
30-Jun-2024 15:00Few Clouds29°C7 mph, SE12%10000m1014hPa37%
30-Jun-2024 18:00Clear Sky33°C4 mph, SE6%10000m1011hPa30%
30-Jun-2024 21:00Clear Sky30°C7 mph, S1%10000m1011hPa38%